sensor_id;sensor_type;location;lat;lon;timestamp;pressure;altitude;pressure_sealevel;temperature;humidity
42771;BME280;28426;42.872;25.314;2023-05-23T00:02:13;96780.22;;;10.93;84.21
42771;BME280;28426;42.872;25.314;2023-05-23T00:04:44;96776.91;;;10.91;84.39
42771;BME280;28426;42.872;25.314;2023-05-23T00:07:15;96778.31;;;10.86;84.39
42771;BME280;28426;42.872;25.314;2023-05-23T00:09:45;96773.16;;;10.85;84.26
42771;BME280;28426;42.872;25.314;2023-05-23T00:12:16;96770.06;;;10.81;84.29
42771;BME280;28426;42.872;25.314;2023-05-23T00:14:50;96770.91;;;10.82;84.58
42771;BME280;28426;42.872;25.314;2023-05-23T00:17:20;96769.44;;;10.79;84.52
42771;BME280;28426;42.872;25.314;2023-05-23T00:19:52;96771.47;;;10.77;84.56
42771;BME280;28426;42.872;25.314;2023-05-23T00:22:23;96761.81;;;10.76;84.53
42771;BME280;28426;42.872;25.314;2023-05-23T00:24:54;96764.50;;;10.76;84.64
42771;BME280;28426;42.872;25.314;2023-05-23T00:27:24;96766.53;;;10.74;84.68
42771;BME280;28426;42.872;25.314;2023-05-23T00:29:58;96763.88;;;10.74;84.49
42771;BME280;28426;42.872;25.314;2023-05-23T00:32:33;96760.56;;;10.72;84.47
42771;BME280;28426;42.872;25.314;2023-05-23T00:35:06;96760.56;;;10.72;84.50
42771;BME280;28426;42.872;25.314;2023-05-23T00:37:37;96759.72;;;10.71;84.38
42771;BME280;28426;42.872;25.314;2023-05-23T00:40:09;96758.91;;;10.71;84.54
42771;BME280;28426;42.872;25.314;2023-05-23T00:42:40;96767.94;;;10.70;84.32
42771;BME280;28426;42.872;25.314;2023-05-23T00:45:14;96753.91;;;10.61;84.48
42771;BME280;28426;42.872;25.314;2023-05-23T00:47:46;96761.28;;;10.59;84.11
42771;BME280;28426;42.872;25.314;2023-05-23T00:50:20;96757.56;;;10.53;84.03
42771;BME280;28426;42.872;25.314;2023-05-23T00:52:51;96762.28;;;10.51;84.27
42771;BME280;28426;42.872;25.314;2023-05-23T00:55:23;96763.66;;;10.47;84.48
42771;BME280;28426;42.872;25.314;2023-05-23T00:57:54;96760.34;;;10.45;84.42
42771;BME280;28426;42.872;25.314;2023-05-23T01:00:27;96761.53;;;10.42;84.36
42771;BME280;28426;42.872;25.314;2023-05-23T01:02:58;96756.19;;;10.42;84.48
42771;BME280;28426;42.872;25.314;2023-05-23T01:05:30;96757.59;;;10.38;84.34
42771;BME280;28426;42.872;25.314;2023-05-23T01:08:00;96759.00;;;10.34;84.29
42771;BME280;28426;42.872;25.314;2023-05-23T01:10:31;96756.75;;;10.31;84.20
42771;BME280;28426;42.872;25.314;2023-05-23T01:13:09;96760.59;;;10.28;84.48
42771;BME280;28426;42.872;25.314;2023-05-23T01:15:50;96758.94;;;10.27;84.67
42771;BME280;28426;42.872;25.314;2023-05-23T01:18:26;96759.13;;;10.26;84.80
42771;BME280;28426;42.872;25.314;2023-05-23T01:21:05;96764.69;;;10.24;84.46
42771;BME280;28426;42.872;25.314;2023-05-23T01:24:02;96756.88;;;10.23;84.87
42771;BME280;28426;42.872;25.314;2023-05-23T01:27:00;96765.44;;;10.18;84.98
42771;BME280;28426;42.872;25.314;2023-05-23T01:29:38;96764.16;;;10.14;84.83
42771;BME280;28426;42.872;25.314;2023-05-23T01:32:13;96768.03;;;10.11;84.91
42771;BME280;28426;42.872;25.314;2023-05-23T01:34:46;96759.59;;;10.07;84.89
42771;BME280;28426;42.872;25.314;2023-05-23T01:37:17;96761.59;;;10.05;85.24
42771;BME280;28426;42.872;25.314;2023-05-23T01:39:48;96756.69;;;10.02;85.41
42771;BME280;28426;42.872;25.314;2023-05-23T01:42:20;96756.22;;;9.99;85.15
42771;BME280;28426;42.872;25.314;2023-05-23T01:44:54;96755.78;;;9.95;85.49
42771;BME280;28426;42.872;25.314;2023-05-23T01:47:26;96754.13;;;9.94;85.53
42771;BME280;28426;42.872;25.314;2023-05-23T01:49:58;96754.31;;;9.92;85.58
42771;BME280;28426;42.872;25.314;2023-05-23T01:52:30;96756.16;;;9.92;85.55
42771;BME280;28426;42.872;25.314;2023-05-23T01:55:02;96756.16;;;9.92;85.70
42771;BME280;28426;42.872;25.314;2023-05-23T01:57:37;96763.16;;;9.93;85.77
42771;BME280;28426;42.872;25.314;2023-05-23T02:00:12;96759.84;;;9.91;85.38
42771;BME280;28426;42.872;25.314;2023-05-23T02:02:46;96762.69;;;9.89;85.19
42771;BME280;28426;42.872;25.314;2023-05-23T02:05:17;96760.19;;;9.88;85.14
42771;BME280;28426;42.872;25.314;2023-05-23T02:07:48;96761.22;;;9.87;85.15
42771;BME280;28426;42.872;25.314;2023-05-23T02:10:19;96762.44;;;9.84;85.11
42771;BME280;28426;42.872;25.314;2023-05-23T02:12:50;96757.09;;;9.84;85.13
42771;BME280;28426;42.872;25.314;2023-05-23T02:15:24;96766.13;;;9.83;85.34
42771;BME280;28426;42.872;25.314;2023-05-23T02:17:57;96767.13;;;9.82;85.25
42771;BME280;28426;42.872;25.314;2023-05-23T02:20:30;96767.31;;;9.80;85.00
42771;BME280;28426;42.872;25.314;2023-05-23T02:23:04;96777.31;;;9.78;85.08
42771;BME280;28426;42.872;25.314;2023-05-23T02:25:37;96776.69;;;9.76;84.92
42771;BME280;28426;42.872;25.314;2023-05-23T02:28:09;96774.03;;;9.76;85.03
42771;BME280;28426;42.872;25.314;2023-05-23T02:30:43;96785.53;;;9.77;84.88
42771;BME280;28426;42.872;25.314;2023-05-23T02:33:14;96777.72;;;9.75;84.73
42771;BME280;28426;42.872;25.314;2023-05-23T02:35:46;96779.72;;;9.73;84.81
42771;BME280;28426;42.872;25.314;2023-05-23T02:38:18;96785.06;;;9.73;84.82
42771;BME280;28426;42.872;25.314;2023-05-23T02:40:49;96770.09;;;9.72;84.83
42771;BME280;28426;42.872;25.314;2023-05-23T02:43:21;96769.06;;;9.73;84.94
42771;BME280;28426;42.872;25.314;2023-05-23T02:45:54;96769.47;;;9.70;84.80
42771;BME280;28426;42.872;25.314;2023-05-23T02:48:25;96772.50;;;9.67;84.84
42771;BME280;28426;42.872;25.314;2023-05-23T02:50:56;96772.50;;;9.67;84.75
42771;BME280;28426;42.872;25.314;2023-05-23T02:53:27;96775.53;;;9.64;84.98
42771;BME280;28426;42.872;25.314;2023-05-23T02:55:58;96774.50;;;9.65;84.93
42771;BME280;28426;42.872;25.314;2023-05-23T02:58:29;96768.38;;;9.64;85.06
42771;BME280;28426;42.872;25.314;2023-05-23T03:01:05;96780.06;;;9.63;85.11
42771;BME280;28426;42.872;25.314;2023-05-23T03:03:36;96776.38;;;9.64;84.95
42771;BME280;28426;42.872;25.314;2023-05-23T03:06:08;96769.41;;;9.63;84.94
42771;BME280;28426;42.872;25.314;2023-05-23T03:08:41;96766.91;;;9.62;84.82
42771;BME280;28426;42.872;25.314;2023-05-23T03:11:12;96770.56;;;9.61;84.91
42771;BME280;28426;42.872;25.314;2023-05-23T03:13:44;96773.22;;;9.61;84.69
42771;BME280;28426;42.872;25.314;2023-05-23T03:16:18;96769.75;;;9.60;84.91
42771;BME280;28426;42.872;25.314;2023-05-23T03:18:49;96770.56;;;9.61;84.76
42771;BME280;28426;42.872;25.314;2023-05-23T03:21:20;96771.59;;;9.60;84.77
42771;BME280;28426;42.872;25.314;2023-05-23T03:23:51;96781.44;;;9.59;85.14
42771;BME280;28426;42.872;25.314;2023-05-23T03:26:22;96769.50;;;9.55;85.17
42771;BME280;28426;42.872;25.314;2023-05-23T03:28:53;96779.56;;;9.60;85.26
42771;BME280;28426;42.872;25.314;2023-05-23T03:31:26;96777.38;;;9.63;85.52
42771;BME280;28426;42.872;25.314;2023-05-23T03:33:57;96775.16;;;9.67;85.82
42771;BME280;28426;42.872;25.314;2023-05-23T03:36:28;96771.47;;;9.68;85.72
42771;BME280;28426;42.872;25.314;2023-05-23T03:38:59;96773.78;;;9.71;85.68
42771;BME280;28426;42.872;25.314;2023-05-23T03:41:30;96771.91;;;9.72;85.60
42771;BME280;28426;42.872;25.314;2023-05-23T03:44:02;96769.06;;;9.73;85.64
42771;BME280;28426;42.872;25.314;2023-05-23T03:46:35;96768.34;;;9.79;86.19
42771;BME280;28426;42.872;25.314;2023-05-23T03:49:07;96771.88;;;9.87;86.28
42771;BME280;28426;42.872;25.314;2023-05-23T03:51:38;96767.47;;;9.94;86.15
42771;BME280;28426;42.872;25.314;2023-05-23T03:54:09;96774.69;;;10.00;85.84
42771;BME280;28426;42.872;25.314;2023-05-23T03:56:40;96775.97;;;10.04;85.53
42771;BME280;28426;42.872;25.314;2023-05-23T03:59:11;96772.28;;;10.05;85.17
42771;BME280;28426;42.872;25.314;2023-05-23T04:01:45;96767.59;;;10.07;85.19
42771;BME280;28426;42.872;25.314;2023-05-23T04:04:16;96779.72;;;10.10;85.25
42771;BME280;28426;42.872;25.314;2023-05-23T04:06:48;96781.19;;;10.13;85.28
42771;BME280;28426;42.872;25.314;2023-05-23T04:09:19;96784.47;;;10.15;85.32
42771;BME280;28426;42.872;25.314;2023-05-23T04:11:51;96790.44;;;10.17;85.25
42771;BME280;28426;42.872;25.314;2023-05-23T04:14:22;96789.25;;;10.19;85.30
42771;BME280;28426;42.872;25.314;2023-05-23T04:16:57;96790.69;;;10.22;85.44
42771;BME280;28426;42.872;25.314;2023-05-23T04:19:29;96794.81;;;10.25;85.07
42771;BME280;28426;42.872;25.314;2023-05-23T04:22:00;96785.78;;;10.26;85.11
42771;BME280;28426;42.872;25.314;2023-05-23T04:24:31;96787.25;;;10.28;85.17
42771;BME280;28426;42.872;25.314;2023-05-23T04:27:02;96786.88;;;10.31;85.23
42771;BME280;28426;42.872;25.314;2023-05-23T04:29:34;96794.31;;;10.36;85.58
42771;BME280;28426;42.872;25.314;2023-05-23T04:32:09;96793.38;;;10.44;85.68
42771;BME280;28426;42.872;25.314;2023-05-23T04:34:39;96793.63;;;10.49;85.76
42771;BME280;28426;42.872;25.314;2023-05-23T04:37:11;96796.53;;;10.54;85.82
42771;BME280;28426;42.872;25.314;2023-05-23T04:39:44;96793.31;;;10.59;85.70
42771;BME280;28426;42.872;25.314;2023-05-23T04:42:41;96802.41;;;10.65;85.67
42771;BME280;28426;42.872;25.314;2023-05-23T04:45:44;96806.94;;;10.71;85.76
42771;BME280;28426;42.872;25.314;2023-05-23T04:48:44;96787.38;;;10.64;85.41
42771;BME280;28426;42.872;25.314;2023-05-23T04:51:15;96813.97;;;10.79;85.63
42771;BME280;28426;42.872;25.314;2023-05-23T04:53:55;96810.75;;;10.83;85.62
42771;BME280;28426;42.872;25.314;2023-05-23T04:56:26;96811.38;;;10.85;85.36
42771;BME280;28426;42.872;25.314;2023-05-23T04:58:57;96812.63;;;10.90;85.46
42771;BME280;28426;42.872;25.314;2023-05-23T05:01:29;96820.88;;;10.95;85.57
42771;BME280;28426;42.872;25.314;2023-05-23T05:04:03;96820.31;;;10.99;85.51
42771;BME280;28426;42.872;25.314;2023-05-23T05:06:34;96818.69;;;11.05;85.67
42771;BME280;28426;42.872;25.314;2023-05-23T05:09:05;96827.75;;;11.11;85.67
42771;BME280;28426;42.872;25.314;2023-05-23T05:11:36;96824.31;;;11.17;85.59
42771;BME280;28426;42.872;25.314;2023-05-23T05:14:07;96823.72;;;11.22;85.62
42771;BME280;28426;42.872;25.314;2023-05-23T05:16:38;96823.94;;;11.27;85.45
42771;BME280;28426;42.872;25.314;2023-05-23T05:19:12;96827.69;;;11.33;85.67
42771;BME280;28426;42.872;25.314;2023-05-23T05:21:45;96833.72;;;11.42;85.94
42771;BME280;28426;42.872;25.314;2023-05-23T05:24:15;96827.38;;;11.49;85.87
42771;BME280;28426;42.872;25.314;2023-05-23T05:26:48;96826.38;;;11.57;85.88
42771;BME280;28426;42.872;25.314;2023-05-23T05:29:19;96823.56;;;11.66;85.64
42771;BME280;28426;42.872;25.314;2023-05-23T05:31:51;96820.50;;;11.69;85.51
42771;BME280;28426;42.872;25.314;2023-05-23T05:34:24;96822.38;;;11.82;85.53
42771;BME280;28426;42.872;25.314;2023-05-23T05:36:56;96817.66;;;11.90;85.67
42771;BME280;28426;42.872;25.314;2023-05-23T05:39:28;96821.41;;;12.03;85.56
42771;BME280;28426;42.872;25.314;2023-05-23T05:41:59;96821.25;;;12.11;85.14
42771;BME280;28426;42.872;25.314;2023-05-23T05:44:31;96820.06;;;12.21;84.95
42771;BME280;28426;42.872;25.314;2023-05-23T05:47:03;96823.78;;;12.33;84.83
42771;BME280;28426;42.872;25.314;2023-05-23T05:49:37;96828.53;;;12.45;85.17
42771;BME280;28426;42.872;25.314;2023-05-23T05:52:09;96834.94;;;12.57;85.06
42771;BME280;28426;42.872;25.314;2023-05-23T05:54:40;96837.00;;;12.68;84.99
42771;BME280;28426;42.872;25.314;2023-05-23T05:57:10;96833.69;;;12.80;84.61
42771;BME280;28426;42.872;25.314;2023-05-23T05:59:41;96840.28;;;12.91;84.42
42771;BME280;28426;42.872;25.314;2023-05-23T06:02:12;96832.44;;;13.03;84.41
42771;BME280;28426;42.872;25.314;2023-05-23T06:04:46;96832.44;;;13.16;84.02
42771;BME280;28426;42.872;25.314;2023-05-23T06:07:17;96828.50;;;13.32;83.80
42771;BME280;28426;42.872;25.314;2023-05-23T06:09:48;96821.88;;;13.49;83.57
42771;BME280;28426;42.872;25.314;2023-05-23T06:12:19;96827.81;;;13.64;83.19
42771;BME280;28426;42.872;25.314;2023-05-23T06:14:50;96825.50;;;13.81;82.69
42771;BME280;28426;42.872;25.314;2023-05-23T06:17:21;96830.59;;;13.96;82.45
42771;BME280;28426;42.872;25.314;2023-05-23T06:19:54;96823.91;;;14.12;81.55
42771;BME280;28426;42.872;25.314;2023-05-23T06:22:25;96830.41;;;14.30;81.44
42771;BME280;28426;42.872;25.314;2023-05-23T06:24:56;96837.75;;;14.48;81.10
42771;BME280;28426;42.872;25.314;2023-05-23T06:27:31;96829.31;;;14.70;80.65
42771;BME280;28426;42.872;25.314;2023-05-23T06:30:02;96825.00;;;14.95;80.60
42771;BME280;28426;42.872;25.314;2023-05-23T06:32:33;96823.56;;;15.17;79.31
42771;BME280;28426;42.872;25.314;2023-05-23T06:35:08;96827.53;;;15.34;78.48
42771;BME280;28426;42.872;25.314;2023-05-23T06:37:40;96824.28;;;15.50;78.05
42771;BME280;28426;42.872;25.314;2023-05-23T06:40:12;96827.44;;;15.66;77.90
42771;BME280;28426;42.872;25.314;2023-05-23T06:42:43;96824.09;;;15.82;77.36
42771;BME280;28426;42.872;25.314;2023-05-23T06:45:44;96834.34;;;16.11;76.85
42771;BME280;28426;42.872;25.314;2023-05-23T06:48:15;96821.47;;;16.44;76.22
42771;BME280;28426;42.872;25.314;2023-05-23T06:50:50;96828.94;;;16.84;75.77
42771;BME280;28426;42.872;25.314;2023-05-23T06:53:21;96817.38;;;17.20;74.29
42771;BME280;28426;42.872;25.314;2023-05-23T06:55:52;96819.34;;;17.60;73.12
42771;BME280;28426;42.872;25.314;2023-05-23T06:58:24;96810.34;;;17.96;72.16
42771;BME280;28426;42.872;25.314;2023-05-23T07:00:57;96815.38;;;18.33;71.86
42771;BME280;28426;42.872;25.314;2023-05-23T07:03:32;96817.72;;;18.76;70.35
42771;BME280;28426;42.872;25.314;2023-05-23T07:06:09;96813.47;;;19.14;69.73
42771;BME280;28426;42.872;25.314;2023-05-23T07:08:42;96802.56;;;19.48;69.16
42771;BME280;28426;42.872;25.314;2023-05-23T07:11:14;96811.94;;;20.03;67.94
42771;BME280;28426;42.872;25.314;2023-05-23T07:13:52;96800.81;;;20.27;66.04
42771;BME280;28426;42.872;25.314;2023-05-23T07:16:40;96799.88;;;20.71;66.73
42771;BME280;28426;42.872;25.314;2023-05-23T07:19:13;96774.84;;;20.91;65.44
42771;BME280;28426;42.872;25.314;2023-05-23T07:21:51;96807.22;;;21.56;65.01
42771;BME280;28426;42.872;25.314;2023-05-23T07:24:23;96799.31;;;22.03;64.10
42771;BME280;28426;42.872;25.314;2023-05-23T07:26:56;96787.44;;;22.46;62.55
42771;BME280;28426;42.872;25.314;2023-05-23T07:29:31;96786.09;;;23.06;60.53
42771;BME280;28426;42.872;25.314;2023-05-23T07:32:07;96782.50;;;23.52;58.87
42771;BME280;28426;42.872;25.314;2023-05-23T07:34:46;96751.84;;;23.86;56.02
42771;BME280;28426;42.872;25.314;2023-05-23T07:37:20;96786.94;;;24.49;55.25
42771;BME280;28426;42.872;25.314;2023-05-23T07:39:54;96766.53;;;24.76;53.96
42771;BME280;28426;42.872;25.314;2023-05-23T07:42:25;96787.47;;;25.20;53.24
42771;BME280;28426;42.872;25.314;2023-05-23T07:44:58;96776.78;;;25.49;51.50
42771;BME280;28426;42.872;25.314;2023-05-23T07:47:32;96777.63;;;25.73;48.30
42771;BME280;28426;42.872;25.314;2023-05-23T07:50:07;96764.94;;;25.83;45.90
42771;BME280;28426;42.872;25.314;2023-05-23T07:52:46;96780.47;;;26.07;47.21
42771;BME280;28426;42.872;25.314;2023-05-23T07:55:24;96762.28;;;26.16;46.91
42771;BME280;28426;42.872;25.314;2023-05-23T07:57:56;96767.28;;;26.33;46.49
42771;BME280;28426;42.872;25.314;2023-05-23T08:00:30;96779.03;;;26.53;46.02
42771;BME280;28426;42.872;25.314;2023-05-23T08:03:11;96749.75;;;26.54;46.03
42771;BME280;28426;42.872;25.314;2023-05-23T08:05:53;96766.66;;;26.75;44.65
42771;BME280;28426;42.872;25.314;2023-05-23T08:08:29;96775.06;;;26.79;43.77
42771;BME280;28426;42.872;25.314;2023-05-23T08:11:00;96772.91;;;26.75;44.22
42771;BME280;28426;42.872;25.314;2023-05-23T08:13:40;96766.66;;;26.56;43.58
42771;BME280;28426;42.872;25.314;2023-05-23T08:16:32;96743.19;;;26.35;43.85
42771;BME280;28426;42.872;25.314;2023-05-23T08:19:13;96774.47;;;26.48;43.33
42771;BME280;28426;42.872;25.314;2023-05-23T08:21:46;96735.28;;;26.34;43.51
42771;BME280;28426;42.872;25.314;2023-05-23T08:24:22;96775.72;;;26.56;41.92
42771;BME280;28426;42.872;25.314;2023-05-23T08:26:54;96746.81;;;26.31;42.50
42771;BME280;28426;42.872;25.314;2023-05-23T08:29:26;96744.84;;;26.12;42.23
42771;BME280;28426;42.872;25.314;2023-05-23T08:31:59;96733.03;;;25.97;42.89
42771;BME280;28426;42.872;25.314;2023-05-23T08:34:46;96754.03;;;26.02;42.06
42771;BME280;28426;42.872;25.314;2023-05-23T08:37:33;96763.81;;;25.84;42.43
42771;BME280;28426;42.872;25.314;2023-05-23T08:40:13;96753.66;;;25.41;42.62
42771;BME280;28426;42.872;25.314;2023-05-23T08:42:54;96726.03;;;24.93;42.45
42771;BME280;28426;42.872;25.314;2023-05-23T08:45:28;96721.28;;;24.75;43.20
42771;BME280;28426;42.872;25.314;2023-05-23T08:48:05;96745.09;;;24.64;43.12
42771;BME280;28426;42.872;25.314;2023-05-23T08:50:46;96747.19;;;24.42;44.18
42771;BME280;28426;42.872;25.314;2023-05-23T08:53:20;96747.31;;;24.56;45.00
42771;BME280;28426;42.872;25.314;2023-05-23T08:56:03;96746.44;;;24.66;45.13
42771;BME280;28426;42.872;25.314;2023-05-23T08:58:41;96751.50;;;24.84;45.28
42771;BME280;28426;42.872;25.314;2023-05-23T09:01:17;96754.66;;;24.96;44.97
42771;BME280;28426;42.872;25.314;2023-05-23T09:03:54;96754.31;;;25.03;44.06
42771;BME280;28426;42.872;25.314;2023-05-23T09:06:43;96739.00;;;25.07;44.49
42771;BME280;28426;42.872;25.314;2023-05-23T09:09:16;96748.13;;;25.21;42.87
42771;BME280;28426;42.872;25.314;2023-05-23T09:11:51;96720.19;;;25.05;43.09
42771;BME280;28426;42.872;25.314;2023-05-23T09:14:22;96743.06;;;25.10;42.77
42771;BME280;28426;42.872;25.314;2023-05-23T09:17:00;96761.50;;;24.93;43.27
42771;BME280;28426;42.872;25.314;2023-05-23T09:19:33;96734.50;;;24.57;43.79
42771;BME280;28426;42.872;25.314;2023-05-23T09:22:34;96739.38;;;24.65;45.02
42771;BME280;28426;42.872;25.314;2023-05-23T09:25:17;96743.38;;;24.73;43.44
42771;BME280;28426;42.872;25.314;2023-05-23T09:27:56;96710.19;;;24.61;44.07
42771;BME280;28426;42.872;25.314;2023-05-23T09:30:33;96734.75;;;24.96;43.93
42771;BME280;28426;42.872;25.314;2023-05-23T09:33:05;96742.56;;;25.07;44.19
42771;BME280;28426;42.872;25.314;2023-05-23T09:35:43;96740.13;;;25.06;43.42
42771;BME280;28426;42.872;25.314;2023-05-23T09:38:14;96746.47;;;24.96;43.39
42771;BME280;28426;42.872;25.314;2023-05-23T09:40:46;96743.09;;;24.75;43.56
42771;BME280;28426;42.872;25.314;2023-05-23T09:43:21;96755.22;;;24.58;43.81
42771;BME280;28426;42.872;25.314;2023-05-23T09:45:54;96743.66;;;24.37;43.79
42771;BME280;28426;42.872;25.314;2023-05-23T09:48:30;96743.47;;;24.23;43.51
42771;BME280;28426;42.872;25.314;2023-05-23T09:51:03;96740.88;;;24.02;43.75
42771;BME280;28426;42.872;25.314;2023-05-23T09:53:37;96716.16;;;23.88;44.03
42771;BME280;28426;42.872;25.314;2023-05-23T09:56:10;96737.56;;;24.15;44.70
42771;BME280;28426;42.872;25.314;2023-05-23T09:58:53;96741.97;;;24.46;44.57
42771;BME280;28426;42.872;25.314;2023-05-23T10:01:26;96717.50;;;24.71;44.55
42771;BME280;28426;42.872;25.314;2023-05-23T10:04:04;96735.41;;;25.12;43.84
42771;BME280;28426;42.872;25.314;2023-05-23T10:06:46;96741.34;;;25.43;43.89
42771;BME280;28426;42.872;25.314;2023-05-23T10:09:22;96722.28;;;25.63;42.79
42771;BME280;28426;42.872;25.314;2023-05-23T10:15:08;96727.72;;;25.87;40.65
42771;BME280;28426;42.872;25.314;2023-05-23T10:17:50;96718.09;;;25.70;39.69
42771;BME280;28426;42.872;25.314;2023-05-23T10:20:24;96729.78;;;25.52;40.10
42771;BME280;28426;42.872;25.314;2023-05-23T10:22:58;96738.66;;;25.38;38.28
42771;BME280;28426;42.872;25.314;2023-05-23T10:25:32;96721.28;;;25.04;39.20
42771;BME280;28426;42.872;25.314;2023-05-23T10:28:05;96712.56;;;24.73;38.57
42771;BME280;28426;42.872;25.314;2023-05-23T10:30:40;96730.63;;;24.63;39.20
42771;BME280;28426;42.872;25.314;2023-05-23T10:33:13;96733.50;;;24.48;40.18
42771;BME280;28426;42.872;25.314;2023-05-23T10:35:55;96710.22;;;24.26;40.72
42771;BME280;28426;42.872;25.314;2023-05-23T10:38:35;96729.53;;;24.29;41.40
42771;BME280;28426;42.872;25.314;2023-05-23T10:41:11;96727.06;;;24.33;40.65
42771;BME280;28426;42.872;25.314;2023-05-23T10:43:51;96729.16;;;24.47;40.65
42771;BME280;28426;42.872;25.314;2023-05-23T10:46:49;96728.94;;;24.73;40.08
42771;BME280;28426;42.872;25.314;2023-05-23T10:49:36;96717.38;;;24.86;40.44
42771;BME280;28426;42.872;25.314;2023-05-23T10:52:08;96703.19;;;24.84;39.84
42771;BME280;28426;42.872;25.314;2023-05-23T10:54:42;96721.91;;;24.96;40.19
42771;BME280;28426;42.872;25.314;2023-05-23T10:57:16;96718.50;;;24.80;39.88
42771;BME280;28426;42.872;25.314;2023-05-23T10:59:49;96720.13;;;24.86;40.00
42771;BME280;28426;42.872;25.314;2023-05-23T11:02:27;96708.09;;;24.87;40.24
42771;BME280;28426;42.872;25.314;2023-05-23T11:05:17;96707.88;;;25.08;39.62
42771;BME280;28426;42.872;25.314;2023-05-23T11:08:07;96712.41;;;25.18;38.66
42771;BME280;28426;42.872;25.314;2023-05-23T11:10:58;96699.53;;;25.24;39.44
42771;BME280;28426;42.872;25.314;2023-05-23T11:13:52;96694.50;;;25.31;38.82
42771;BME280;28426;42.872;25.314;2023-05-23T11:16:29;96694.28;;;25.27;39.26
42771;BME280;28426;42.872;25.314;2023-05-23T11:19:28;96700.66;;;25.17;38.94
42771;BME280;28426;42.872;25.314;2023-05-23T11:22:03;96696.44;;;25.06;39.25
42771;BME280;28426;42.872;25.314;2023-05-23T11:24:47;96690.09;;;24.86;38.35
42771;BME280;28426;42.872;25.314;2023-05-23T11:27:25;96705.66;;;24.86;38.99
42771;BME280;28426;42.872;25.314;2023-05-23T11:29:57;96677.22;;;24.57;38.68
42771;BME280;28426;42.872;25.314;2023-05-23T11:32:33;96683.56;;;24.52;38.29
42771;BME280;28426;42.872;25.314;2023-05-23T11:35:09;96698.03;;;24.48;38.75
42771;BME280;28426;42.872;25.314;2023-05-23T11:37:40;96702.50;;;24.38;39.20
42771;BME280;28426;42.872;25.314;2023-05-23T11:43:04;96699.44;;;24.10;39.12
42771;BME280;28426;42.872;25.314;2023-05-23T11:45:37;96685.91;;;23.89;39.10
42771;BME280;28426;42.872;25.314;2023-05-23T11:48:09;96692.53;;;23.78;39.40
42771;BME280;28426;42.872;25.314;2023-05-23T11:50:47;96694.50;;;23.62;39.70
42771;BME280;28426;42.872;25.314;2023-05-23T11:53:20;96687.19;;;23.52;40.34
42771;BME280;28426;42.872;25.314;2023-05-23T11:55:53;96682.84;;;23.46;41.02
42771;BME280;28426;42.872;25.314;2023-05-23T11:58:27;96682.06;;;23.45;40.85
42771;BME280;28426;42.872;25.314;2023-05-23T12:00:59;96679.06;;;23.47;40.97
42771;BME280;28426;42.872;25.314;2023-05-23T12:03:30;96678.22;;;23.46;40.76
42771;BME280;28426;42.872;25.314;2023-05-23T12:06:05;96669.81;;;23.43;39.81
42771;BME280;28426;42.872;25.314;2023-05-23T12:08:39;96672.00;;;23.35;39.79
42771;BME280;28426;42.872;25.314;2023-05-23T12:11:11;96667.66;;;23.29;40.14
42771;BME280;28426;42.872;25.314;2023-05-23T12:13:42;96666.56;;;23.30;41.02
42771;BME280;28426;42.872;25.314;2023-05-23T12:16:13;96664.94;;;23.34;41.03
42771;BME280;28426;42.872;25.314;2023-05-23T12:18:44;96660.81;;;23.42;41.09
42771;BME280;28426;42.872;25.314;2023-05-23T12:21:18;96658.34;;;23.51;40.81
42771;BME280;28426;42.872;25.314;2023-05-23T12:23:49;96653.94;;;23.60;41.07
42771;BME280;28426;42.872;25.314;2023-05-23T12:26:20;96657.16;;;23.68;41.14
42771;BME280;28426;42.872;25.314;2023-05-23T12:28:51;96654.38;;;23.73;40.35
42771;BME280;28426;42.872;25.314;2023-05-23T12:31:24;96659.56;;;23.74;40.04
42771;BME280;28426;42.872;25.314;2023-05-23T12:33:56;96653.59;;;23.72;39.81
42771;BME280;28426;42.872;25.314;2023-05-23T12:36:30;96652.25;;;23.70;39.74
42771;BME280;28426;42.872;25.314;2023-05-23T12:39:11;96655.53;;;23.67;40.24
42771;BME280;28426;42.872;25.314;2023-05-23T12:41:42;96648.75;;;23.59;39.41
42771;BME280;28426;42.872;25.314;2023-05-23T12:44:14;96641.75;;;23.42;38.79
42771;BME280;28426;42.872;25.314;2023-05-23T12:46:46;96640.44;;;23.29;38.98
42771;BME280;28426;42.872;25.314;2023-05-23T12:49:16;96672.88;;;23.15;38.71
42771;BME280;28426;42.872;25.314;2023-05-23T12:51:51;96669.94;;;22.96;40.51
42771;BME280;28426;42.872;25.314;2023-05-23T12:54:21;96673.81;;;22.69;41.81
42771;BME280;28426;42.872;25.314;2023-05-23T12:56:52;96663.75;;;22.43;42.27
42771;BME280;28426;42.872;25.314;2023-05-23T12:59:23;96659.13;;;22.23;43.02
42771;BME280;28426;42.872;25.314;2023-05-23T13:01:54;96651.78;;;22.08;42.94
42771;BME280;28426;42.872;25.314;2023-05-23T13:04:26;96658.31;;;21.91;41.94
42771;BME280;28426;42.872;25.314;2023-05-23T13:07:01;96653.09;;;21.74;42.30
42771;BME280;28426;42.872;25.314;2023-05-23T13:09:32;96650.88;;;21.61;42.03
42771;BME280;28426;42.872;25.314;2023-05-23T13:12:03;96648.66;;;21.47;42.78
42771;BME280;28426;42.872;25.314;2023-05-23T13:14:34;96640.25;;;21.38;43.34
42771;BME280;28426;42.872;25.314;2023-05-23T13:17:05;96643.19;;;21.32;43.39
42771;BME280;28426;42.872;25.314;2023-05-23T13:19:36;96649.72;;;21.25;43.54
42771;BME280;28426;42.872;25.314;2023-05-23T13:22:10;96642.91;;;21.23;44.27
42771;BME280;28426;42.872;25.314;2023-05-23T13:24:41;96644.78;;;21.17;44.84
42771;BME280;28426;42.872;25.314;2023-05-23T13:27:12;96655.34;;;21.13;45.08
42771;BME280;28426;42.872;25.314;2023-05-23T13:29:43;96643.09;;;21.06;45.39
42771;BME280;28426;42.872;25.314;2023-05-23T13:32:14;96651.50;;;21.04;45.41
42771;BME280;28426;42.872;25.314;2023-05-23T13:34:45;96642.31;;;21.05;45.82
42771;BME280;28426;42.872;25.314;2023-05-23T13:37:19;96644.19;;;21.10;45.95